Řízení letového provozu České republiky
Letiste: LKPD Aktualizace: 09.12.2016 11:08:13  UTC
 METAR LKPD 09.12. 11:00 ...
METAR LKPD 091100Z 08003KT 040V100 6000 -RA OVC021 02/M00 Q1027 NOSIG =
 TAF LKPD 09.12. 05:00 ...
TAF LKPD 090500Z 0906/1006 27006KT CAVOK      TEMPO 0906/0908 6000      BECMG 0908/0910 BKN028      TEMPO 0913/0921 27010KT      PROB40 TEMPO 0915/0918 7000 RA SCT018 BKN025      TEMPO 1000/1006 VRB02KT 4000 DZ BR BKN012 BKN020=